sensor_id;sensor_type;location;lat;lon;timestamp;pressure;altitude;pressure_sealevel;temperature;humidity
41690;BME280;27372;42.658;23.256;2023-09-18T00:02:24;94296.72;;;15.82;100.00
41690;BME280;27372;42.658;23.256;2023-09-18T00:04:50;94301.06;;;15.93;100.00
41690;BME280;27372;42.658;23.256;2023-09-18T00:07:15;94289.94;;;15.96;100.00
41690;BME280;27372;42.658;23.256;2023-09-18T00:09:41;94289.94;;;15.96;100.00
41690;BME280;27372;42.658;23.256;2023-09-18T00:12:06;94278.59;;;15.63;100.00
41690;BME280;27372;42.658;23.256;2023-09-18T00:14:32;94295.13;;;15.81;100.00
41690;BME280;27372;42.658;23.256;2023-09-18T00:16:58;94290.94;;;15.85;100.00
41690;BME280;27372;42.658;23.256;2023-09-18T00:19:24;94283.41;;;15.72;100.00
41690;BME280;27372;42.658;23.256;2023-09-18T00:21:50;94290.03;;;15.74;100.00
41690;BME280;27372;42.658;23.256;2023-09-18T00:24:17;94289.03;;;15.80;100.00
41690;BME280;27372;42.658;23.256;2023-09-18T00:26:42;94296.25;;;15.90;100.00
41690;BME280;27372;42.658;23.256;2023-09-18T00:29:07;94289.13;;;15.91;100.00
41690;BME280;27372;42.658;23.256;2023-09-18T00:31:33;94286.47;;;15.91;100.00
41690;BME280;27372;42.658;23.256;2023-09-18T00:33:58;94293.44;;;16.07;100.00
41690;BME280;27372;42.658;23.256;2023-09-18T00:36:24;94298.69;;;15.97;100.00
41690;BME280;27372;42.658;23.256;2023-09-18T00:38:49;94292.00;;;15.89;100.00
41690;BME280;27372;42.658;23.256;2023-09-18T00:41:14;94295.75;;;15.93;100.00
41690;BME280;27372;42.658;23.256;2023-09-18T00:43:40;94294.22;;;16.03;100.00
41690;BME280;27372;42.658;23.256;2023-09-18T00:46:05;94299.47;;;15.97;100.00
41690;BME280;27372;42.658;23.256;2023-09-18T00:48:31;94302.16;;;16.08;100.00
41690;BME280;27372;42.658;23.256;2023-09-18T00:50:57;94293.72;;;16.11;100.00
41690;BME280;27372;42.658;23.256;2023-09-18T00:53:23;94297.19;;;16.11;100.00
41690;BME280;27372;42.658;23.256;2023-09-18T00:55:55;94293.34;;;15.87;100.00
41690;BME280;27372;42.658;23.256;2023-09-18T00:58:23;94305.31;;;15.99;100.00
41690;BME280;27372;42.658;23.256;2023-09-18T01:00:49;94306.41;;;16.04;100.00
41690;BME280;27372;42.658;23.256;2023-09-18T01:03:19;94307.94;;;15.94;100.00
41690;BME280;27372;42.658;23.256;2023-09-18T01:05:46;94307.81;;;16.22;100.00
41690;BME280;27372;42.658;23.256;2023-09-18T01:08:12;94308.59;;;16.17;100.00
41690;BME280;27372;42.658;23.256;2023-09-18T01:13:22;94317.88;;;16.20;100.00
41690;BME280;27372;42.658;23.256;2023-09-18T01:15:53;94314.50;;;16.35;100.00
41690;BME280;27372;42.658;23.256;2023-09-18T01:18:19;94308.88;;;16.21;100.00
41690;BME280;27372;42.658;23.256;2023-09-18T01:20:45;94306.31;;;16.41;100.00
41690;BME280;27372;42.658;23.256;2023-09-18T01:23:10;94308.72;;;16.53;100.00
41690;BME280;27372;42.658;23.256;2023-09-18T01:25:37;94301.34;;;16.66;100.00
41690;BME280;27372;42.658;23.256;2023-09-18T01:28:03;94303.47;;;16.69;100.00
41690;BME280;27372;42.658;23.256;2023-09-18T01:30:28;94303.47;;;16.74;100.00
41690;BME280;27372;42.658;23.256;2023-09-18T01:32:55;94304.41;;;16.32;100.00
41690;BME280;27372;42.658;23.256;2023-09-18T01:35:22;94300.00;;;16.58;100.00
41690;BME280;27372;42.658;23.256;2023-09-18T01:37:56;94305.31;;;16.63;100.00
41690;BME280;27372;42.658;23.256;2023-09-18T01:40:22;94298.81;;;16.28;100.00
41690;BME280;27372;42.658;23.256;2023-09-18T01:42:48;94303.94;;;16.45;100.00
41690;BME280;27372;42.658;23.256;2023-09-18T01:45:14;94306.50;;;16.24;100.00
41690;BME280;27372;42.658;23.256;2023-09-18T01:47:39;94308.72;;;16.53;100.00
41690;BME280;27372;42.658;23.256;2023-09-18T01:50:05;94302.91;;;16.56;100.00
41690;BME280;27372;42.658;23.256;2023-09-18T01:52:30;94299.72;;;15.91;100.00
41690;BME280;27372;42.658;23.256;2023-09-18T01:54:56;94295.81;;;16.09;100.00
41690;BME280;27372;42.658;23.256;2023-09-18T01:57:21;94302.00;;;16.25;100.00
41690;BME280;27372;42.658;23.256;2023-09-18T01:59:47;94298.63;;;15.87;100.00
41690;BME280;27372;42.658;23.256;2023-09-18T02:02:12;94303.50;;;16.05;100.00
41690;BME280;27372;42.658;23.256;2023-09-18T02:04:38;94309.97;;;16.35;100.00
41690;BME280;27372;42.658;23.256;2023-09-18T02:07:05;94312.66;;;16.45;100.00
41690;BME280;27372;42.658;23.256;2023-09-18T02:09:31;94311.88;;;16.50;100.00
41690;BME280;27372;42.658;23.256;2023-09-18T02:11:56;94310.53;;;16.32;100.00
41690;BME280;27372;42.658;23.256;2023-09-18T02:14:22;94319.03;;;16.44;100.00
41690;BME280;27372;42.658;23.256;2023-09-18T02:16:47;94317.97;;;16.45;100.00
41690;BME280;27372;42.658;23.256;2023-09-18T02:19:15;94312.06;;;16.28;100.00
41690;BME280;27372;42.658;23.256;2023-09-18T02:21:42;94324.09;;;16.46;100.00
41690;BME280;27372;42.658;23.256;2023-09-18T02:24:08;94318.41;;;16.22;100.00
41690;BME280;27372;42.658;23.256;2023-09-18T02:26:35;94320.75;;;16.18;100.00
41690;BME280;27372;42.658;23.256;2023-09-18T02:29:05;94318.00;;;15.97;100.00
41690;BME280;27372;42.658;23.256;2023-09-18T02:31:30;94317.81;;;16.09;100.00
41690;BME280;27372;42.658;23.256;2023-09-18T02:33:56;94321.19;;;15.94;100.00
41690;BME280;27372;42.658;23.256;2023-09-18T02:36:21;94315.34;;;15.97;100.00
41690;BME280;27372;42.658;23.256;2023-09-18T02:38:47;94315.00;;;16.26;100.00
41690;BME280;27372;42.658;23.256;2023-09-18T02:41:12;94308.72;;;15.95;100.00
41690;BME280;27372;42.658;23.256;2023-09-18T02:43:37;94301.88;;;15.61;100.00
41690;BME280;27372;42.658;23.256;2023-09-18T02:46:04;94307.41;;;15.97;100.00
41690;BME280;27372;42.658;23.256;2023-09-18T02:48:30;94306.97;;;15.68;100.00
41690;BME280;27372;42.658;23.256;2023-09-18T02:50:56;94309.41;;;15.75;100.00
41690;BME280;27372;42.658;23.256;2023-09-18T02:53:23;94310.66;;;16.05;100.00
41690;BME280;27372;42.658;23.256;2023-09-18T02:55:51;94314.94;;;16.16;100.00
41690;BME280;27372;42.658;23.256;2023-09-18T02:58:16;94324.22;;;16.19;100.00
41690;BME280;27372;42.658;23.256;2023-09-18T03:00:43;94327.88;;;16.07;100.00
41690;BME280;27372;42.658;23.256;2023-09-18T03:03:10;94319.69;;;16.14;100.00
41690;BME280;27372;42.658;23.256;2023-09-18T03:05:36;94324.94;;;16.04;100.00
41690;BME280;27372;42.658;23.256;2023-09-18T03:08:01;94319.53;;;16.36;100.00
41690;BME280;27372;42.658;23.256;2023-09-18T03:10:27;94321.97;;;16.48;100.00
41690;BME280;27372;42.658;23.256;2023-09-18T03:12:53;94323.81;;;16.48;100.00
41690;BME280;27372;42.658;23.256;2023-09-18T03:15:18;94315.09;;;16.52;100.00
41690;BME280;27372;42.658;23.256;2023-09-18T03:17:44;94314.59;;;16.71;100.00
41690;BME280;27372;42.658;23.256;2023-09-18T03:20:10;94317.56;;;16.80;100.00
41690;BME280;27372;42.658;23.256;2023-09-18T03:22:35;94302.66;;;16.63;100.00
41690;BME280;27372;42.658;23.256;2023-09-18T03:25:01;94311.16;;;16.70;100.00
41690;BME280;27372;42.658;23.256;2023-09-18T03:27:26;94311.47;;;16.84;100.00
41690;BME280;27372;42.658;23.256;2023-09-18T03:29:54;94307.75;;;16.90;100.00
41690;BME280;27372;42.658;23.256;2023-09-18T03:32:20;94304.31;;;16.90;100.00
41690;BME280;27372;42.658;23.256;2023-09-18T03:34:46;94307.00;;;17.05;100.00
41690;BME280;27372;42.658;23.256;2023-09-18T03:37:11;94311.50;;;17.00;100.00
41690;BME280;27372;42.658;23.256;2023-09-18T03:39:37;94301.72;;;17.00;100.00
41690;BME280;27372;42.658;23.256;2023-09-18T03:42:02;94306.19;;;17.00;100.00
41690;BME280;27372;42.658;23.256;2023-09-18T03:44:28;94298.50;;;16.98;100.00
41690;BME280;27372;42.658;23.256;2023-09-18T03:46:53;94300.34;;;16.92;100.00
41690;BME280;27372;42.658;23.256;2023-09-18T03:49:19;94296.09;;;16.91;100.00
41690;BME280;27372;42.658;23.256;2023-09-18T03:51:44;94291.34;;;16.94;100.00
41690;BME280;27372;42.658;23.256;2023-09-18T03:54:10;94287.06;;;16.87;100.00
41690;BME280;27372;42.658;23.256;2023-09-18T03:56:35;94291.56;;;16.87;100.00
41690;BME280;27372;42.658;23.256;2023-09-18T03:59:02;94290.72;;;16.55;100.00
41690;BME280;27372;42.658;23.256;2023-09-18T04:01:27;94287.56;;;16.74;100.00
41690;BME280;27372;42.658;23.256;2023-09-18T04:03:53;94293.16;;;16.83;100.00
41690;BME280;27372;42.658;23.256;2023-09-18T04:06:21;94298.69;;;16.66;100.00
41690;BME280;27372;42.658;23.256;2023-09-18T04:08:46;94290.75;;;16.66;100.00
41690;BME280;27372;42.658;23.256;2023-09-18T04:11:12;94285.97;;;16.73;100.00
41690;BME280;27372;42.658;23.256;2023-09-18T04:13:37;94292.84;;;16.69;100.00
41690;BME280;27372;42.658;23.256;2023-09-18T04:16:04;94298.16;;;16.64;100.00
41690;BME280;27372;42.658;23.256;2023-09-18T04:18:29;94298.50;;;16.19;100.00
41690;BME280;27372;42.658;23.256;2023-09-18T04:20:55;94311.44;;;16.05;100.00
41690;BME280;27372;42.658;23.256;2023-09-18T04:23:25;94297.38;;;15.62;100.00
41690;BME280;27372;42.658;23.256;2023-09-18T04:25:53;94312.97;;;15.58;100.00
41690;BME280;27372;42.658;23.256;2023-09-18T04:28:19;94314.56;;;15.54;100.00
41690;BME280;27372;42.658;23.256;2023-09-18T04:30:45;94310.50;;;15.46;100.00
41690;BME280;27372;42.658;23.256;2023-09-18T04:33:12;94315.13;;;15.61;100.00
41690;BME280;27372;42.658;23.256;2023-09-18T04:35:38;94313.09;;;15.36;100.00
41690;BME280;27372;42.658;23.256;2023-09-18T04:38:07;94314.78;;;15.15;100.00
41690;BME280;27372;42.658;23.256;2023-09-18T04:40:33;94317.50;;;15.25;100.00
41690;BME280;27372;42.658;23.256;2023-09-18T04:42:59;94319.91;;;15.64;100.00
41690;BME280;27372;42.658;23.256;2023-09-18T04:45:25;94325.28;;;15.75;100.00
41690;BME280;27372;42.658;23.256;2023-09-18T04:47:51;94320.53;;;15.77;100.00
41690;BME280;27372;42.658;23.256;2023-09-18T04:50:16;94317.97;;;15.87;100.00
41690;BME280;27372;42.658;23.256;2023-09-18T04:52:42;94316.22;;;15.65;100.00
41690;BME280;27372;42.658;23.256;2023-09-18T04:55:08;94315.75;;;15.79;100.00
41690;BME280;27372;42.658;23.256;2023-09-18T04:57:34;94323.09;;;16.04;100.00
41690;BME280;27372;42.658;23.256;2023-09-18T04:59:59;94315.97;;;16.10;100.00
41690;BME280;27372;42.658;23.256;2023-09-18T05:02:25;94321.81;;;16.12;100.00
41690;BME280;27372;42.658;23.256;2023-09-18T05:04:51;94313.84;;;16.07;100.00
41690;BME280;27372;42.658;23.256;2023-09-18T05:07:16;94308.50;;;15.96;100.00
41690;BME280;27372;42.658;23.256;2023-09-18T05:09:42;94319.88;;;15.97;100.00
41690;BME280;27372;42.658;23.256;2023-09-18T05:12:08;94313.78;;;15.96;100.00
41690;BME280;27372;42.658;23.256;2023-09-18T05:14:42;94316.13;;;15.93;100.00
41690;BME280;27372;42.658;23.256;2023-09-18T05:17:15;94312.72;;;15.97;100.00
41690;BME280;27372;42.658;23.256;2023-09-18T05:19:40;94315.63;;;15.96;100.00
41690;BME280;27372;42.658;23.256;2023-09-18T05:22:06;94326.59;;;16.15;100.00
41690;BME280;27372;42.658;23.256;2023-09-18T05:24:32;94317.66;;;16.32;100.00
41690;BME280;27372;42.658;23.256;2023-09-18T05:26:57;94327.84;;;16.66;100.00
41690;BME280;27372;42.658;23.256;2023-09-18T05:29:23;94318.63;;;16.89;100.00
41690;BME280;27372;42.658;23.256;2023-09-18T05:31:49;94320.28;;;17.05;100.00
41690;BME280;27372;42.658;23.256;2023-09-18T05:34:15;94328.50;;;17.14;100.00
41690;BME280;27372;42.658;23.256;2023-09-18T05:36:40;94323.75;;;17.27;100.00
41690;BME280;27372;42.658;23.256;2023-09-18T05:39:06;94319.75;;;17.19;100.00
41690;BME280;27372;42.658;23.256;2023-09-18T05:41:38;94320.03;;;17.43;100.00
41690;BME280;27372;42.658;23.256;2023-09-18T05:44:05;94333.84;;;17.50;100.00
41690;BME280;27372;42.658;23.256;2023-09-18T05:46:34;94330.91;;;17.47;100.00
41690;BME280;27372;42.658;23.256;2023-09-18T05:49:00;94333.84;;;17.56;100.00
41690;BME280;27372;42.658;23.256;2023-09-18T05:51:26;94334.38;;;17.63;100.00
41690;BME280;27372;42.658;23.256;2023-09-18T05:53:51;94337.28;;;17.56;100.00
41690;BME280;27372;42.658;23.256;2023-09-18T05:56:17;94330.13;;;17.77;100.00
41690;BME280;27372;42.658;23.256;2023-09-18T05:58:43;94333.28;;;17.84;100.00
41690;BME280;27372;42.658;23.256;2023-09-18T06:01:08;94333.03;;;17.96;100.00
41690;BME280;27372;42.658;23.256;2023-09-18T06:03:34;94334.84;;;18.11;100.00
41690;BME280;27372;42.658;23.256;2023-09-18T06:06:04;94334.03;;;18.21;100.00
41690;BME280;27372;42.658;23.256;2023-09-18T06:08:29;94336.75;;;18.06;100.00
41690;BME280;27372;42.658;23.256;2023-09-18T06:10:56;94335.91;;;18.15;100.00
41690;BME280;27372;42.658;23.256;2023-09-18T06:13:23;94344.88;;;18.35;99.94
41690;BME280;27372;42.658;23.256;2023-09-18T06:15:49;94340.09;;;18.37;100.00
41690;BME280;27372;42.658;23.256;2023-09-18T06:18:15;94349.09;;;18.52;99.87
41690;BME280;27372;42.658;23.256;2023-09-18T06:20:41;94347.19;;;18.62;98.90
41690;BME280;27372;42.658;23.256;2023-09-18T06:23:08;94347.03;;;18.33;100.00
41690;BME280;27372;42.658;23.256;2023-09-18T06:25:34;94343.34;;;18.19;100.00
41690;BME280;27372;42.658;23.256;2023-09-18T06:27:59;94344.03;;;18.55;98.49
41690;BME280;27372;42.658;23.256;2023-09-18T06:30:25;94357.56;;;18.59;98.50
41690;BME280;27372;42.658;23.256;2023-09-18T06:32:51;94356.13;;;18.82;95.49
41690;BME280;27372;42.658;23.256;2023-09-18T06:35:18;94359.09;;;18.81;95.79
41690;BME280;27372;42.658;23.256;2023-09-18T06:37:43;94347.06;;;18.88;94.56
41690;BME280;27372;42.658;23.256;2023-09-18T06:40:09;94351.88;;;18.81;95.45
41690;BME280;27372;42.658;23.256;2023-09-18T06:42:34;94356.91;;;18.88;95.26
41690;BME280;27372;42.658;23.256;2023-09-18T06:45:00;94346.00;;;18.95;95.04
41690;BME280;27372;42.658;23.256;2023-09-18T06:47:26;94353.41;;;19.03;94.77
41690;BME280;27372;42.658;23.256;2023-09-18T06:49:52;94350.66;;;18.53;97.12
41690;BME280;27372;42.658;23.256;2023-09-18T06:52:18;94339.69;;;18.70;97.32
41690;BME280;27372;42.658;23.256;2023-09-18T06:54:43;94339.34;;;18.92;94.84
41690;BME280;27372;42.658;23.256;2023-09-18T06:57:09;94349.25;;;19.31;94.08
41690;BME280;27372;42.658;23.256;2023-09-18T06:59:35;94348.50;;;19.60;91.40
41690;BME280;27372;42.658;23.256;2023-09-18T07:02:01;94347.94;;;19.63;90.19
41690;BME280;27372;42.658;23.256;2023-09-18T07:04:27;94348.13;;;19.72;90.25
41690;BME280;27372;42.658;23.256;2023-09-18T07:06:52;94349.13;;;20.11;88.29
41690;BME280;27372;42.658;23.256;2023-09-18T07:09:19;94341.13;;;20.11;88.46
41690;BME280;27372;42.658;23.256;2023-09-18T07:11:45;94337.16;;;20.08;88.14
41690;BME280;27372;42.658;23.256;2023-09-18T07:14:10;94341.25;;;20.25;89.28
41690;BME280;27372;42.658;23.256;2023-09-18T07:16:35;94348.44;;;20.73;90.51
41690;BME280;27372;42.658;23.256;2023-09-18T07:19:01;94342.72;;;20.36;87.13
41690;BME280;27372;42.658;23.256;2023-09-18T07:21:29;94344.88;;;20.83;86.34
41690;BME280;27372;42.658;23.256;2023-09-18T07:23:55;94347.63;;;21.87;86.10
41690;BME280;27372;42.658;23.256;2023-09-18T07:26:20;94355.25;;;22.27;84.09
41690;BME280;27372;42.658;23.256;2023-09-18T07:28:46;94354.56;;;21.88;79.36
41690;BME280;27372;42.658;23.256;2023-09-18T07:31:11;94358.09;;;22.02;78.76
41690;BME280;27372;42.658;23.256;2023-09-18T07:33:37;94350.97;;;22.40;79.47
41690;BME280;27372;42.658;23.256;2023-09-18T07:36:03;94351.06;;;23.04;78.08
41690;BME280;27372;42.658;23.256;2023-09-18T07:38:29;94357.84;;;23.38;74.63
41690;BME280;27372;42.658;23.256;2023-09-18T07:40:54;94344.97;;;23.26;75.23
41690;BME280;27372;42.658;23.256;2023-09-18T07:43:21;94348.25;;;23.60;73.25
41690;BME280;27372;42.658;23.256;2023-09-18T07:45:49;94346.16;;;23.57;73.87
41690;BME280;27372;42.658;23.256;2023-09-18T07:48:14;94353.31;;;23.93;71.59
41690;BME280;27372;42.658;23.256;2023-09-18T07:50:45;94344.56;;;24.01;70.60
41690;BME280;27372;42.658;23.256;2023-09-18T07:53:11;94349.13;;;24.01;71.76
41690;BME280;27372;42.658;23.256;2023-09-18T07:55:37;94341.06;;;24.24;69.93
41690;BME280;27372;42.658;23.256;2023-09-18T07:58:04;94341.25;;;24.36;67.94
41690;BME280;27372;42.658;23.256;2023-09-18T08:00:30;94337.06;;;24.53;68.27
41690;BME280;27372;42.658;23.256;2023-09-18T08:02:55;94336.09;;;24.98;64.89
41690;BME280;27372;42.658;23.256;2023-09-18T08:05:26;94336.13;;;25.33;65.38
41690;BME280;27372;42.658;23.256;2023-09-18T08:07:55;94335.78;;;25.08;62.77
41690;BME280;27372;42.658;23.256;2023-09-18T08:10:23;94338.47;;;25.17;62.02
41690;BME280;27372;42.658;23.256;2023-09-18T08:12:48;94344.00;;;25.03;63.25
41690;BME280;27372;42.658;23.256;2023-09-18T08:15:16;94346.69;;;25.11;63.31
41690;BME280;27372;42.658;23.256;2023-09-18T08:17:42;94331.34;;;25.03;62.97
41690;BME280;27372;42.658;23.256;2023-09-18T08:20:08;94327.56;;;25.31;63.53
41690;BME280;27372;42.658;23.256;2023-09-18T08:22:38;94330.41;;;25.78;62.07
41690;BME280;27372;42.658;23.256;2023-09-18T08:25:06;94337.88;;;25.55;60.63
41690;BME280;27372;42.658;23.256;2023-09-18T08:27:36;94322.69;;;25.41;62.55
41690;BME280;27372;42.658;23.256;2023-09-18T08:30:06;94324.88;;;25.66;61.18
41690;BME280;27372;42.658;23.256;2023-09-18T08:32:36;94321.09;;;25.67;60.66
41690;BME280;27372;42.658;23.256;2023-09-18T08:35:02;94321.84;;;25.76;60.21
41690;BME280;27372;42.658;23.256;2023-09-18T08:37:27;94326.75;;;25.92;58.72
41690;BME280;27372;42.658;23.256;2023-09-18T08:39:53;94316.38;;;25.55;59.71
41690;BME280;27372;42.658;23.256;2023-09-18T08:42:20;94311.31;;;25.53;60.45
41690;BME280;27372;42.658;23.256;2023-09-18T08:44:49;94316.38;;;25.55;59.78
41690;BME280;27372;42.658;23.256;2023-09-18T08:47:17;94309.22;;;25.59;60.28
41690;BME280;27372;42.658;23.256;2023-09-18T08:49:44;94307.78;;;25.70;59.85
41690;BME280;27372;42.658;23.256;2023-09-18T08:52:10;94300.53;;;25.71;59.70
41690;BME280;27372;42.658;23.256;2023-09-18T08:54:37;94296.41;;;25.73;57.89
41690;BME280;27372;42.658;23.256;2023-09-18T08:57:03;94306.16;;;25.96;59.03
41690;BME280;27372;42.658;23.256;2023-09-18T08:59:33;94295.88;;;25.98;59.93
41690;BME280;27372;42.658;23.256;2023-09-18T09:02:00;94300.72;;;26.22;58.00
41690;BME280;27372;42.658;23.256;2023-09-18T09:04:25;94298.41;;;26.03;57.31
41690;BME280;27372;42.658;23.256;2023-09-18T09:06:51;94302.41;;;25.79;54.78
41690;BME280;27372;42.658;23.256;2023-09-18T09:09:16;94295.31;;;25.74;55.83
41690;BME280;27372;42.658;23.256;2023-09-18T09:11:51;94292.75;;;25.87;55.52
41690;BME280;27372;42.658;23.256;2023-09-18T09:14:16;94291.03;;;25.73;55.69
41690;BME280;27372;42.658;23.256;2023-09-18T09:16:50;94283.38;;;25.93;54.79
41690;BME280;27372;42.658;23.256;2023-09-18T09:19:17;94283.84;;;26.04;54.50
41690;BME280;27372;42.658;23.256;2023-09-18T09:21:44;94280.00;;;26.14;53.78
41690;BME280;27372;42.658;23.256;2023-09-18T09:24:10;94278.75;;;26.11;53.04
41690;BME280;27372;42.658;23.256;2023-09-18T09:26:40;94275.47;;;26.44;52.00
41690;BME280;27372;42.658;23.256;2023-09-18T09:29:16;94278.09;;;26.53;51.31
41690;BME280;27372;42.658;23.256;2023-09-18T09:31:44;94281.75;;;26.48;51.30
41690;BME280;27372;42.658;23.256;2023-09-18T09:34:10;94281.88;;;26.52;49.66
41690;BME280;27372;42.658;23.256;2023-09-18T09:36:36;94275.00;;;26.42;50.35
41690;BME280;27372;42.658;23.256;2023-09-18T09:39:02;94270.44;;;26.34;51.07
41690;BME280;27372;42.658;23.256;2023-09-18T09:41:31;94265.22;;;26.59;50.87
41690;BME280;27372;42.658;23.256;2023-09-18T09:43:57;94269.69;;;26.85;48.71
41690;BME280;27372;42.658;23.256;2023-09-18T09:46:23;94274.41;;;26.88;47.64
41690;BME280;27372;42.658;23.256;2023-09-18T09:49:03;94275.69;;;27.11;47.55
41690;BME280;27372;42.658;23.256;2023-09-18T09:51:29;94273.53;;;27.38;45.90
41690;BME280;27372;42.658;23.256;2023-09-18T09:53:54;94266.06;;;27.23;46.30
41690;BME280;27372;42.658;23.256;2023-09-18T09:56:20;94259.41;;;27.75;45.85
41690;BME280;27372;42.658;23.256;2023-09-18T09:59:19;94268.44;;;27.46;45.52
41690;BME280;27372;42.658;23.256;2023-09-18T10:01:48;94258.75;;;27.78;45.82
41690;BME280;27372;42.658;23.256;2023-09-18T10:04:18;94260.34;;;27.79;44.15
41690;BME280;27372;42.658;23.256;2023-09-18T10:06:50;94268.69;;;27.99;43.84
41690;BME280;27372;42.658;23.256;2023-09-18T10:09:16;94257.38;;;28.30;42.68
41690;BME280;27372;42.658;23.256;2023-09-18T10:11:46;94250.50;;;28.58;41.96
41690;BME280;27372;42.658;23.256;2023-09-18T10:14:16;94253.31;;;28.61;42.88
41690;BME280;27372;42.658;23.256;2023-09-18T10:16:51;94257.44;;;28.96;42.50
41690;BME280;27372;42.658;23.256;2023-09-18T10:22:37;94234.63;;;28.81;42.04
41690;BME280;27372;42.658;23.256;2023-09-18T10:25:14;94241.47;;;28.66;42.84
41690;BME280;27372;42.658;23.256;2023-09-18T10:27:50;94246.41;;;29.01;41.95
41690;BME280;27372;42.658;23.256;2023-09-18T10:30:20;94236.59;;;29.09;41.18
41690;BME280;27372;42.658;23.256;2023-09-18T10:32:48;94224.56;;;29.35;40.79
41690;BME280;27372;42.658;23.256;2023-09-18T10:35:13;94226.22;;;29.39;41.52
41690;BME280;27372;42.658;23.256;2023-09-18T10:37:41;94229.84;;;29.59;39.96
41690;BME280;27372;42.658;23.256;2023-09-18T10:40:08;94211.56;;;28.46;40.98
41690;BME280;27372;42.658;23.256;2023-09-18T10:42:45;94203.25;;;28.64;40.59
41690;BME280;27372;42.658;23.256;2023-09-18T10:45:12;94210.94;;;28.90;40.50
41690;BME280;27372;42.658;23.256;2023-09-18T10:47:42;94209.06;;;28.78;40.22
41690;BME280;27372;42.658;23.256;2023-09-18T10:50:10;94214.63;;;29.39;39.51
41690;BME280;27372;42.658;23.256;2023-09-18T10:52:42;94206.06;;;29.37;39.52
41690;BME280;27372;42.658;23.256;2023-09-18T10:55:11;94198.88;;;29.73;38.98
41690;BME280;27372;42.658;23.256;2023-09-18T10:57:37;94201.50;;;29.69;40.01
41690;BME280;27372;42.658;23.256;2023-09-18T11:00:04;94196.00;;;29.66;38.43
41690;BME280;27372;42.658;23.256;2023-09-18T11:02:40;94198.88;;;29.73;39.19
41690;BME280;27372;42.658;23.256;2023-09-18T11:05:06;94195.22;;;30.13;37.55
41690;BME280;27372;42.658;23.256;2023-09-18T11:07:32;94185.19;;;30.30;37.20
41690;BME280;27372;42.658;23.256;2023-09-18T11:09:57;94182.78;;;30.44;36.53
41690;BME280;27372;42.658;23.256;2023-09-18T11:12:42;94194.56;;;30.52;36.26
41690;BME280;27372;42.658;23.256;2023-09-18T11:15:08;94186.22;;;29.77;37.24
41690;BME280;27372;42.658;23.256;2023-09-18T11:17:39;94190.63;;;30.49;37.15
41690;BME280;27372;42.658;23.256;2023-09-18T11:22:47;94185.75;;;29.43;38.04
41690;BME280;27372;42.658;23.256;2023-09-18T11:28:01;94176.88;;;29.58;37.75
41690;BME280;27372;42.658;23.256;2023-09-18T11:30:28;94169.03;;;29.69;38.40
41690;BME280;27372;42.658;23.256;2023-09-18T11:32:55;94171.59;;;29.94;37.59
41690;BME280;27372;42.658;23.256;2023-09-18T11:35:21;94167.13;;;30.02;36.79
41690;BME280;27372;42.658;23.256;2023-09-18T11:37:47;94164.59;;;29.77;37.27
41690;BME280;27372;42.658;23.256;2023-09-18T11:40:29;94170.91;;;30.33;36.51
41690;BME280;27372;42.658;23.256;2023-09-18T11:43:21;94164.38;;;30.89;35.28
41690;BME280;27372;42.658;23.256;2023-09-18T11:46:00;94163.56;;;31.48;34.35
41690;BME280;27372;42.658;23.256;2023-09-18T11:48:27;94161.25;;;31.69;34.37
41690;BME280;27372;42.658;23.256;2023-09-18T11:50:56;94161.81;;;32.05;33.85
41690;BME280;27372;42.658;23.256;2023-09-18T11:53:23;94148.47;;;32.20;33.78
41690;BME280;27372;42.658;23.256;2023-09-18T11:55:49;94153.16;;;31.96;33.20
41690;BME280;27372;42.658;23.256;2023-09-18T11:58:15;94149.84;;;31.60;33.91
41690;BME280;27372;42.658;23.256;2023-09-18T12:00:41;94151.03;;;31.63;33.68
41690;BME280;27372;42.658;23.256;2023-09-18T12:05:43;94142.56;;;31.64;33.70
41690;BME280;27372;42.658;23.256;2023-09-18T12:08:11;94143.78;;;32.44;32.94
41690;BME280;27372;42.658;23.256;2023-09-18T12:10:37;94153.47;;;32.18;33.18
41690;BME280;27372;42.658;23.256;2023-09-18T12:13:06;94145.16;;;32.30;32.82
41690;BME280;27372;42.658;23.256;2023-09-18T12:15:33;94138.09;;;32.26;32.65
41690;BME280;27372;42.658;23.256;2023-09-18T12:18:08;94143.41;;;32.45;32.88
41690;BME280;27372;42.658;23.256;2023-09-18T12:20:36;94147.31;;;32.48;32.51
41690;BME280;27372;42.658;23.256;2023-09-18T12:23:02;94133.44;;;32.26;31.99
41690;BME280;27372;42.658;23.256;2023-09-18T12:25:28;94139.09;;;31.67;32.78
41690;BME280;27372;42.658;23.256;2023-09-18T12:27:54;94136.63;;;30.96;33.94
41690;BME280;27372;42.658;23.256;2023-09-18T12:30:20;94140.34;;;31.27;33.75
41690;BME280;27372;42.658;23.256;2023-09-18T12:32:48;94132.47;;;31.41;33.44
41690;BME280;27372;42.658;23.256;2023-09-18T12:35:14;94149.16;;;31.43;33.75
41690;BME280;27372;42.658;23.256;2023-09-18T12:37:40;94134.19;;;31.73;33.66
41690;BME280;27372;42.658;23.256;2023-09-18T12:40:07;94129.22;;;30.73;34.79
41690;BME280;27372;42.658;23.256;2023-09-18T12:42:46;94124.38;;;31.22;33.91
41690;BME280;27372;42.658;23.256;2023-09-18T12:45:12;94129.84;;;31.25;33.97
41690;BME280;27372;42.658;23.256;2023-09-18T12:47:38;94124.22;;;31.14;34.94
41690;BME280;27372;42.658;23.256;2023-09-18T12:50:05;94130.31;;;31.74;34.68
41690;BME280;27372;42.658;23.256;2023-09-18T12:52:32;94118.59;;;31.93;34.24
41690;BME280;27372;42.658;23.256;2023-09-18T12:54:58;94118.03;;;31.37;35.32
41690;BME280;27372;42.658;23.256;2023-09-18T12:57:25;94120.38;;;30.76;36.66
41690;BME280;27372;42.658;23.256;2023-09-18T12:59:50;94120.59;;;31.07;36.18